Main page
METAR-TAF:

METAR-TAF

Airports :

Sumburgh, Shetland, Scotland

Sumburgh Airport

latitude: 59-53N, longitude: 001-18W, elevation: 5 m

Current weather observation

The report was made 19 minutes ago, at 23:50 UTC
Wind 3 kt from the Northwest
Temperature 9°C
Humidity 87%
Pressure 1013 hPa
Visibility 10 km or more

METAR: EGPB 192350Z AUTO 31003KT 9999 NCD 09/07 Q1013

Time: 01:09 (00:09 UTC)

Forecast

The report was made 1 hour and 10 minutes ago, at 22:59 UTC
Forecast valid from 20 at 00 UTC to 20 at 09 UTC
Wind 3 kt from the Northwest
Visibility 10 km or more
Few clouds at a height of 1800 ft
Becoming
from 20 at 07 UTC to 20 at 09 UTC
Wind 12 kt from the South/Southeast

TAF: EGPB 192259Z 2000/2009 32003KT 9999 FEW018 BECMG 2007/2009 15012KT

Weather observations and forecasts of more than 4000 airports (METAR and TAF reports).

The available stations are represented by yellow and red dots on the map.

Hover mouse over dot to see the name of the station.

Then click to see weather observations and forecasts.

To change the map : click on the green buttons with a black cross to zoom in, on the green button with a dash to zoom out, or on the green arrows for adjacent maps.


METAR-TAF: